createdAt,value
2023-01-06T00:02:00.675Z,100413.41
2023-01-06T00:04:28.024Z,100415.53
2023-01-06T00:06:54.954Z,100410.56
2023-01-06T00:09:21.762Z,100411.31
2023-01-06T00:11:50.050Z,100406.16
2023-01-06T00:14:17.436Z,100407.06
2023-01-06T00:16:44.295Z,100407.06
2023-01-06T00:19:11.721Z,100396.66
2023-01-06T00:21:38.519Z,100398.53
2023-01-06T00:24:06.094Z,100397.09
2023-01-06T00:26:33.265Z,100396.91
2023-01-06T00:29:01.440Z,100394.03
2023-01-06T00:31:28.390Z,100389.47
2023-01-06T00:33:56.537Z,100384.91
2023-01-06T00:36:25.528Z,100377.97
2023-01-06T00:38:52.299Z,100385.50
2023-01-06T00:41:20.001Z,100377.22
2023-01-06T00:43:46.757Z,100370.16
2023-01-06T00:46:15.447Z,100368.13
2023-01-06T00:48:52.397Z,100365.03
2023-01-06T00:51:28.997Z,100370.66
2023-01-06T00:53:58.468Z,100368.69
2023-01-06T00:56:25.195Z,100373.91
2023-01-06T00:58:52.250Z,100371.47
2023-01-06T01:01:20.607Z,100368.19
2023-01-06T01:03:47.503Z,100364.03
2023-01-06T01:06:15.266Z,100377.16
2023-01-06T01:08:42.291Z,100358.06
2023-01-06T01:11:11.920Z,100362.22
2023-01-06T01:13:38.768Z,100354.38
2023-01-06T01:16:07.774Z,100352.31
2023-01-06T01:18:36.528Z,100343.38
2023-01-06T01:21:03.425Z,100347.72
2023-01-06T01:23:30.269Z,100346.13
2023-01-06T01:25:57.627Z,100364.13
2023-01-06T01:28:24.714Z,100356.47
2023-01-06T01:30:59.494Z,100363.94
2023-01-06T01:33:26.445Z,100345.78
2023-01-06T01:35:54.810Z,100356.19
2023-01-06T01:38:21.809Z,100353.09
2023-01-06T01:40:48.919Z,100357.53
2023-01-06T01:43:16.689Z,100347.38
2023-01-06T01:45:49.788Z,100354.69
2023-01-06T01:48:27.716Z,100344.75
2023-01-06T01:51:00.955Z,100341.81
2023-01-06T01:53:32.982Z,100345.16
2023-01-06T01:56:06.047Z,100351.19
2023-01-06T01:58:40.047Z,100353.50
2023-01-06T02:01:11.082Z,100359.78
2023-01-06T02:03:41.990Z,100346.91
2023-01-06T02:06:18.051Z,100342.41
2023-01-06T02:08:55.784Z,100343.84
2023-01-06T02:11:23.831Z,100339.50
2023-01-06T02:14:04.207Z,100333.88
2023-01-06T02:16:48.259Z,100333.88
2023-01-06T02:20:03.286Z,100330.78
2023-01-06T02:23:02.542Z,100331.19
2023-01-06T02:26:06.466Z,100332.03
2023-01-06T02:29:03.321Z,100327.66
2023-01-06T02:32:00.759Z,100324.72
2023-01-06T02:34:43.374Z,100321.22
2023-01-06T02:37:33.836Z,100321.91
2023-01-06T02:40:24.209Z,100328.16
2023-01-06T02:43:10.789Z,100332.94
2023-01-06T02:46:00.206Z,100321.94
2023-01-06T02:48:43.834Z,100321.53
2023-01-06T02:51:21.980Z,100317.00
2023-01-06T02:54:06.043Z,100324.50
2023-01-06T02:56:45.040Z,100321.38
2023-01-06T02:59:22.462Z,100326.59
2023-01-06T03:01:53.881Z,100327.00
2023-01-06T03:04:30.264Z,100322.63
2023-01-06T03:07:03.186Z,100320.97
2023-01-06T03:09:35.459Z,100313.28
2023-01-06T03:12:12.217Z,100318.06
2023-01-06T03:14:45.630Z,100313.31
2023-01-06T03:17:13.250Z,100307.47
2023-01-06T03:19:44.042Z,100316.19
2023-01-06T03:22:14.242Z,100321.63
2023-01-06T03:24:43.129Z,100307.44
2023-01-06T03:27:10.502Z,100308.91
2023-01-06T03:29:39.946Z,100309.94
2023-01-06T03:32:22.066Z,100309.75
2023-01-06T03:35:12.546Z,100313.91
2023-01-06T03:37:53.003Z,100313.91
2023-01-06T03:40:32.812Z,100325.78
2023-01-06T03:43:12.740Z,100319.53
2023-01-06T03:45:56.376Z,100322.03
2023-01-06T03:48:47.552Z,100312.88
2023-01-06T03:51:36.840Z,100321.63
2023-01-06T03:54:18.087Z,100320.38
2023-01-06T03:56:51.106Z,100325.78
2023-01-06T03:59:25.085Z,100319.53
2023-01-06T04:01:53.233Z,100316.00
2023-01-06T04:04:21.480Z,100322.44
2023-01-06T04:06:50.188Z,100318.69
2023-01-06T04:09:17.286Z,100312.84
2023-01-06T04:11:45.439Z,100311.63
2023-01-06T04:14:13.418Z,100314.34
2023-01-06T04:16:41.173Z,100312.88
2023-01-06T04:19:09.319Z,100318.72
2023-01-06T04:21:37.135Z,100316.63
2023-01-06T04:24:06.233Z,100312.88
2023-01-06T04:26:35.368Z,100306.59
2023-01-06T04:29:02.514Z,100314.13
2023-01-06T04:31:30.001Z,100316.41
2023-01-06T04:33:58.039Z,100305.38
2023-01-06T04:36:24.938Z,100310.78
2023-01-06T04:38:54.317Z,100305.38
2023-01-06T04:41:22.883Z,100303.06
2023-01-06T04:43:50.024Z,100297.44
2023-01-06T04:46:17.567Z,100298.69
2023-01-06T04:48:44.403Z,100295.19
2023-01-06T04:51:11.805Z,100289.97
2023-01-06T04:53:41.025Z,100287.25
2023-01-06T04:56:10.424Z,100272.88
2023-01-06T04:58:39.932Z,100279.31
2023-01-06T05:01:10.181Z,100284.31
2023-01-06T05:03:38.092Z,100273.50
2023-01-06T05:06:08.305Z,100281.00
2023-01-06T05:08:36.093Z,100276.19
2023-01-06T05:11:06.357Z,100274.53
2023-01-06T05:13:33.764Z,100277.88
2023-01-06T05:16:07.265Z,100281.00
2023-01-06T05:18:34.417Z,100281.59
2023-01-06T05:21:01.336Z,100274.97
2023-01-06T05:23:28.270Z,100277.88
2023-01-06T05:25:55.153Z,100270.38
2023-01-06T05:28:22.246Z,100268.72
2023-01-06T05:30:49.415Z,100275.81
2023-01-06T05:33:17.809Z,100258.09
2023-01-06T05:35:45.283Z,100267.88
2023-01-06T05:38:12.130Z,100266.22
2023-01-06T05:40:38.911Z,100263.50
2023-01-06T05:43:05.745Z,100264.34
2023-01-06T05:45:32.563Z,100264.97
2023-01-06T05:47:59.436Z,100271.66
2023-01-06T05:50:27.682Z,100265.38
2023-01-06T05:52:54.783Z,100261.22
2023-01-06T05:55:21.550Z,100270.78
2023-01-06T05:57:48.586Z,100277.06
2023-01-06T06:00:16.122Z,100269.34
2023-01-06T06:02:42.899Z,100269.94
2023-01-06T06:05:09.766Z,100269.75
2023-01-06T06:07:38.230Z,100276.00
2023-01-06T06:10:06.553Z,100274.09
2023-01-06T06:12:33.314Z,100284.91
2023-01-06T06:15:00.186Z,100280.38
2023-01-06T06:17:27.686Z,100274.75
2023-01-06T06:19:54.426Z,100277.66
2023-01-06T06:22:21.218Z,100275.78
2023-01-06T06:24:49.351Z,100279.97
2023-01-06T06:27:16.136Z,100293.91
2023-01-06T06:29:42.902Z,100287.38
2023-01-06T06:32:09.679Z,100293.41
2023-01-06T06:34:36.909Z,100298.00
2023-01-06T06:37:03.758Z,100300.50
2023-01-06T06:39:30.623Z,100304.25
2023-01-06T06:41:58.807Z,100323.59
2023-01-06T06:44:25.641Z,100308.97
2023-01-06T06:46:52.480Z,100312.31
2023-01-06T06:49:19.720Z,100313.13
2023-01-06T06:51:46.479Z,100308.16
2023-01-06T06:54:13.964Z,100316.66
2023-01-06T06:56:40.688Z,100318.09
2023-01-06T06:59:08.790Z,100323.13
2023-01-06T07:01:35.734Z,100325.16
2023-01-06T07:04:02.616Z,100325.16
2023-01-06T07:06:29.723Z,100326.81
2023-01-06T07:08:57.274Z,100328.88
2023-01-06T07:11:24.221Z,100327.44
2023-01-06T07:13:51.025Z,100323.91
2023-01-06T07:16:19.737Z,100333.88
2023-01-06T07:18:47.199Z,100333.88
2023-01-06T07:21:13.975Z,100338.69
2023-01-06T07:23:40.712Z,100354.91
2023-01-06T07:26:07.456Z,100353.22
2023-01-06T07:28:34.691Z,100346.31
2023-01-06T07:31:02.097Z,100345.66
2023-01-06T07:33:30.233Z,100347.72
2023-01-06T07:35:58.216Z,100346.25
2023-01-06T07:38:26.168Z,100352.91
2023-01-06T07:40:53.624Z,100358.31
2023-01-06T07:43:20.670Z,100363.91
2023-01-06T07:45:48.000Z,100364.94
2023-01-06T07:48:15.142Z,100360.63
2023-01-06T07:50:45.173Z,100360.41
2023-01-06T07:53:13.064Z,100362.72
2023-01-06T07:55:39.878Z,100355.03
2023-01-06T07:58:08.253Z,100353.56
2023-01-06T08:00:36.020Z,100366.13
2023-01-06T08:03:06.272Z,100370.31
2023-01-06T08:05:36.625Z,100375.94
2023-01-06T08:08:05.157Z,100371.59
2023-01-06T08:10:32.197Z,100361.81
2023-01-06T08:12:59.012Z,100359.34
2023-01-06T08:15:26.734Z,100367.06
2023-01-06T08:17:55.110Z,100369.38
2023-01-06T08:20:22.383Z,100377.94
2023-01-06T08:22:49.264Z,100378.78
2023-01-06T08:25:17.488Z,100385.91
2023-01-06T08:27:44.362Z,100383.78
2023-01-06T08:30:12.156Z,100389.00
2023-01-06T08:32:38.971Z,100379.63
2023-01-06T08:35:06.779Z,100380.91
2023-01-06T08:37:34.103Z,100382.53
2023-01-06T08:40:00.899Z,100375.69
2023-01-06T08:42:28.999Z,100375.94
2023-01-06T08:44:56.659Z,100379.91
2023-01-06T08:47:24.005Z,100384.72
2023-01-06T08:49:51.057Z,100383.91
2023-01-06T08:52:18.435Z,100386.59
2023-01-06T08:54:45.170Z,100385.56
2023-01-06T08:57:11.961Z,100389.13
2023-01-06T08:59:40.296Z,100395.81
2023-01-06T09:02:07.187Z,100390.59
2023-01-06T09:04:34.044Z,100391.22
2023-01-06T09:07:01.207Z,100400.81
2023-01-06T09:09:28.079Z,100408.31
2023-01-06T09:11:54.899Z,100411.41
2023-01-06T09:14:21.760Z,100413.50
2023-01-06T09:16:49.975Z,100412.47
2023-01-06T09:19:17.027Z,100404.56
2023-01-06T09:21:43.928Z,100408.88
2023-01-06T09:24:14.627Z,100411.63
2023-01-06T09:26:41.577Z,100416.41
2023-01-06T09:29:08.491Z,100414.75
2023-01-06T09:31:35.651Z,100414.13
2023-01-06T09:34:03.950Z,100416.84
2023-01-06T09:36:30.795Z,100426.44
2023-01-06T09:38:57.609Z,100425.19
2023-01-06T09:42:11.860Z,100422.50
2023-01-06T09:44:52.721Z,100430.59
2023-01-06T09:47:29.189Z,100429.38
2023-01-06T09:50:07.848Z,100422.69
2023-01-06T09:52:41.679Z,100414.94
2023-01-06T09:55:20.314Z,100413.69
2023-01-06T09:57:57.447Z,100407.88
2023-01-06T10:00:38.098Z,100389.50
2023-01-06T10:03:08.288Z,100395.75
2023-01-06T10:05:48.349Z,100396.00
2023-01-06T10:08:33.943Z,100396.84
2023-01-06T10:11:14.451Z,100389.13
2023-01-06T10:14:04.858Z,100379.50
2023-01-06T10:16:57.134Z,100381.16
2023-01-06T10:19:47.409Z,100379.13
2023-01-06T10:22:33.819Z,100374.94
2023-01-06T10:25:15.073Z,100370.69
2023-01-06T10:27:49.144Z,100372.44
2023-01-06T10:30:26.170Z,100373.06
2023-01-06T10:32:56.246Z,100374.13
2023-01-06T10:35:27.500Z,100372.44
2023-01-06T10:38:02.959Z,100366.81
2023-01-06T10:40:30.564Z,100377.66
2023-01-06T10:43:03.388Z,100382.44
2023-01-06T10:45:37.239Z,100376.00
2023-01-06T10:48:07.593Z,100380.59
2023-01-06T10:50:35.194Z,100380.78
2023-01-06T10:53:04.914Z,100376.66
2023-01-06T10:55:42.091Z,100375.78
2023-01-06T10:58:23.352Z,100374.75
2023-01-06T11:00:59.978Z,100375.81
2023-01-06T11:03:35.693Z,100362.00
2023-01-06T11:06:08.077Z,100364.25
2023-01-06T11:08:38.001Z,100364.63
2023-01-06T11:11:26.857Z,100365.88
2023-01-06T11:13:59.115Z,100369.41
2023-01-06T11:16:30.809Z,100357.28
2023-01-06T11:19:00.767Z,100351.47
2023-01-06T11:21:39.371Z,100343.13
2023-01-06T11:24:18.300Z,100348.94
2023-01-06T11:26:51.649Z,100355.19
2023-01-06T11:29:27.493Z,100349.41
2023-01-06T11:31:56.194Z,100353.19
2023-01-06T11:34:26.626Z,100351.72
2023-01-06T11:36:53.641Z,100357.56
2023-01-06T11:39:28.687Z,100356.75
2023-01-06T11:42:04.043Z,100365.09
2023-01-06T11:44:34.011Z,100364.25
2023-01-06T11:47:05.892Z,100361.53
2023-01-06T11:49:39.221Z,100340.50
2023-01-06T11:52:21.145Z,100343.63
2023-01-06T11:55:00.638Z,100340.72
2023-01-06T11:57:39.736Z,100338.41
2023-01-06T12:00:38.060Z,100341.91
2023-01-06T12:03:17.170Z,100344.00
2023-01-06T12:05:54.788Z,100330.84
2023-01-06T12:08:30.493Z,100348.78
2023-01-06T12:11:07.358Z,100330.41
2023-01-06T12:13:44.580Z,100323.13
2023-01-06T12:16:27.832Z,100329.16
2023-01-06T12:18:55.591Z,100317.97
2023-01-06T12:21:30.297Z,100306.47
2023-01-06T12:24:02.328Z,100305.44
2023-01-06T12:26:32.570Z,100306.69
2023-01-06T12:29:02.111Z,100310.25
2023-01-06T12:31:47.208Z,100297.13
2023-01-06T12:34:22.726Z,100307.34
2023-01-06T12:37:00.091Z,100305.03
2023-01-06T12:39:38.047Z,100318.00
2023-01-06T12:42:21.087Z,100304.44
2023-01-06T12:44:54.645Z,100312.38
2023-01-06T12:47:31.110Z,100308.81
2023-01-06T12:50:05.608Z,100309.03
2023-01-06T12:52:41.469Z,100307.16
2023-01-06T12:55:16.399Z,100311.09
2023-01-06T12:57:56.075Z,100314.22
2023-01-06T13:00:42.015Z,100314.00
2023-01-06T13:03:52.002Z,100312.75
2023-01-06T13:06:44.500Z,100303.59
2023-01-06T13:09:33.999Z,100305.03
2023-01-06T13:12:26.462Z,100309.25
2023-01-06T13:15:06.103Z,100317.38
2023-01-06T13:17:41.933Z,100309.88
2023-01-06T13:20:21.166Z,100308.47
2023-01-06T13:23:05.371Z,100322.03
2023-01-06T13:26:06.612Z,100326.38
2023-01-06T13:28:51.041Z,100323.69
2023-01-06T13:31:49.660Z,100322.03
2023-01-06T13:34:50.968Z,100325.34
2023-01-06T13:37:34.486Z,100312.03
2023-01-06T13:40:10.307Z,100305.97
2023-01-06T13:42:45.489Z,100310.38
2023-01-06T13:45:21.785Z,100307.22
2023-01-06T13:47:51.334Z,100307.84
2023-01-06T13:50:21.657Z,100320.53
2023-01-06T13:52:50.450Z,100315.31
2023-01-06T13:55:28.698Z,100318.84
2023-01-06T13:57:56.404Z,100312.81
2023-01-06T14:00:28.769Z,100318.00
2023-01-06T14:03:14.794Z,100321.13
2023-01-06T14:05:54.457Z,100325.13
2023-01-06T14:08:26.399Z,100330.31
2023-01-06T14:11:29.371Z,100329.69
2023-01-06T14:13:59.447Z,100323.03
2023-01-06T14:16:42.335Z,100330.56
2023-01-06T14:19:17.791Z,100334.94
2023-01-06T14:21:46.407Z,100339.75
2023-01-06T14:24:27.757Z,100349.56
2023-01-06T14:26:57.253Z,100349.75
2023-01-06T14:30:01.883Z,100347.88
2023-01-06T14:33:00.066Z,100349.97
2023-01-06T14:35:35.618Z,100352.03
2023-01-06T14:38:07.324Z,100348.91
2023-01-06T14:40:45.691Z,100359.34
2023-01-06T14:43:32.599Z,100353.47
2023-01-06T14:46:09.103Z,100355.78
2023-01-06T14:48:46.155Z,100354.13
2023-01-06T14:51:20.662Z,100354.13
2023-01-06T14:53:58.428Z,100348.91
2023-01-06T14:56:29.350Z,100347.25
2023-01-06T14:59:08.905Z,100352.88
2023-01-06T15:01:39.143Z,100351.44
2023-01-06T15:04:21.564Z,100354.13
2023-01-06T15:07:02.561Z,100351.44
2023-01-06T15:09:29.649Z,100360.38
2023-01-06T15:11:56.568Z,100357.25
2023-01-06T15:14:32.661Z,100359.53
2023-01-06T15:17:04.549Z,100349.31
2023-01-06T15:19:32.619Z,100356.41
2023-01-06T15:22:07.155Z,100361.22
2023-01-06T15:24:41.484Z,100359.13
2023-01-06T15:27:14.981Z,100351.41
2023-01-06T15:29:50.781Z,100359.13
2023-01-06T15:32:19.919Z,100347.88
2023-01-06T15:34:47.827Z,100354.09
2023-01-06T15:37:20.217Z,100355.78
2023-01-06T15:39:48.485Z,100348.28
2023-01-06T15:42:21.276Z,100356.22
2023-01-06T15:44:56.471Z,100359.13
2023-01-06T15:47:32.416Z,100353.91
2023-01-06T15:50:03.449Z,100366.59
2023-01-06T15:52:36.517Z,100368.06
2023-01-06T15:55:19.327Z,100366.41
2023-01-06T15:57:56.042Z,100377.88
2023-01-06T16:00:26.592Z,100369.53
2023-01-06T16:02:53.776Z,100367.03
2023-01-06T16:05:40.918Z,100369.53
2023-01-06T16:08:22.637Z,100369.53
2023-01-06T16:10:50.254Z,100367.84
2023-01-06T16:13:25.571Z,100364.94
2023-01-06T16:16:00.511Z,100364.94
2023-01-06T16:18:32.551Z,100368.91
2023-01-06T16:21:12.547Z,100369.53
2023-01-06T16:23:41.250Z,100368.69
2023-01-06T16:26:15.460Z,100366.81
2023-01-06T16:28:47.790Z,100364.94
2023-01-06T16:31:28.866Z,100371.16
2023-01-06T16:33:56.119Z,100363.25
2023-01-06T16:36:24.321Z,100360.31
2023-01-06T16:38:52.665Z,100368.25
2023-01-06T16:41:20.023Z,100356.94
2023-01-06T16:43:47.086Z,100357.75
2023-01-06T16:46:23.006Z,100358.78
2023-01-06T16:48:52.016Z,100357.94
2023-01-06T16:51:19.149Z,100353.38
2023-01-06T16:53:47.494Z,100360.00
2023-01-06T16:56:19.791Z,100360.63
2023-01-06T16:58:46.687Z,100353.13
2023-01-06T17:01:17.415Z,100357.41
2023-01-06T17:03:53.212Z,100362.38
2023-01-06T17:06:22.830Z,100361.63
2023-01-06T17:08:53.350Z,100364.13
2023-01-06T17:11:25.582Z,100362.00
2023-01-06T17:13:57.058Z,100367.63
2023-01-06T17:16:34.867Z,100369.72
2023-01-06T17:19:14.065Z,100365.31
2023-01-06T17:21:41.584Z,100366.31
2023-01-06T17:24:14.716Z,100365.44
2023-01-06T17:26:51.564Z,100371.03
2023-01-06T17:29:21.329Z,100371.44
2023-01-06T17:31:52.255Z,100371.06
2023-01-06T17:34:22.275Z,100367.56
2023-01-06T17:36:55.281Z,100371.97
2023-01-06T17:39:26.345Z,100374.28
2023-01-06T17:42:18.599Z,100379.50
2023-01-06T17:44:50.980Z,100370.59
2023-01-06T17:47:29.674Z,100376.25
2023-01-06T17:49:59.396Z,100379.13
2023-01-06T17:52:32.303Z,100376.38
2023-01-06T17:55:11.428Z,100386.59
2023-01-06T17:57:44.567Z,100386.56
2023-01-06T18:00:22.823Z,100372.44
2023-01-06T18:02:57.653Z,100382.84
2023-01-06T18:05:56.602Z,100376.25
2023-01-06T18:08:26.789Z,100360.84
2023-01-06T18:10:59.030Z,100374.59
2023-01-06T18:13:35.570Z,100367.13
2023-01-06T18:16:09.446Z,100373.59
2023-01-06T18:18:40.058Z,100368.63
2023-01-06T18:21:33.028Z,100364.47
2023-01-06T18:24:15.420Z,100364.28
2023-01-06T18:26:48.738Z,100367.59
2023-01-06T18:29:21.321Z,100371.75
2023-01-06T18:31:52.174Z,100371.94
2023-01-06T18:34:31.648Z,100373.13
2023-01-06T18:37:02.170Z,100366.69
2023-01-06T18:39:37.577Z,100367.53
2023-01-06T18:42:23.638Z,100370.84
2023-01-06T18:45:01.616Z,100380.44
2023-01-06T18:47:31.541Z,100374.19
2023-01-06T18:50:20.663Z,100383.97
2023-01-06T18:52:49.308Z,100390.88
2023-01-06T18:55:26.044Z,100397.94
2023-01-06T18:58:02.266Z,100397.09
2023-01-06T19:00:39.893Z,100391.47
2023-01-06T19:03:28.200Z,100388.78
2023-01-06T19:06:24.097Z,100396.69
2023-01-06T19:08:50.955Z,100399.38
2023-01-06T19:11:23.879Z,100399.13
2023-01-06T19:13:58.315Z,100396.41
2023-01-06T19:16:37.147Z,100392.69
2023-01-06T19:19:34.421Z,100397.88
2023-01-06T19:22:16.725Z,100398.22
2023-01-06T19:24:48.938Z,100398.00
2023-01-06T19:27:41.116Z,100385.75
2023-01-06T19:30:40.292Z,100393.06
2023-01-06T19:33:37.265Z,100379.16
2023-01-06T19:36:38.562Z,100385.84
2023-01-06T19:39:29.661Z,100383.75
2023-01-06T19:42:11.509Z,100382.09
2023-01-06T19:44:39.242Z,100380.44
2023-01-06T19:47:17.736Z,100369.00
2023-01-06T19:49:47.651Z,100374.59
2023-01-06T19:52:32.186Z,100385.75
2023-01-06T19:55:17.472Z,100385.94
2023-01-06T19:57:50.774Z,100371.41
2023-01-06T20:00:26.051Z,100379.22
2023-01-06T20:02:56.401Z,100375.78
2023-01-06T20:05:26.387Z,100377.25
2023-01-06T20:07:53.327Z,100375.84
2023-01-06T20:10:20.902Z,100377.09
2023-01-06T20:12:48.206Z,100370.66
2023-01-06T20:15:16.102Z,100364.38
2023-01-06T20:17:42.969Z,100368.84
2023-01-06T20:20:11.570Z,100365.13
2023-01-06T20:22:39.732Z,100361.66
2023-01-06T20:25:07.915Z,100361.38
2023-01-06T20:27:34.728Z,100359.38
2023-01-06T20:30:01.913Z,100365.97
2023-01-06T20:32:28.822Z,100367.06
2023-01-06T20:34:55.884Z,100366.94
2023-01-06T20:37:22.787Z,100373.03
2023-01-06T20:39:50.979Z,100365.03
2023-01-06T20:42:18.342Z,100365.72
2023-01-06T20:44:45.084Z,100370.13
2023-01-06T20:47:11.923Z,100368.56
2023-01-06T20:49:39.035Z,100372.09
2023-01-06T20:52:06.227Z,100371.84
2023-01-06T20:54:33.370Z,100379.13
2023-01-06T20:57:01.827Z,100377.25
2023-01-06T20:59:28.689Z,100373.34
2023-01-06T21:01:55.695Z,100370.56
2023-01-06T21:04:22.843Z,100377.84
2023-01-06T21:06:49.598Z,100378.88
2023-01-06T21:09:16.477Z,100373.00
2023-01-06T21:11:43.322Z,100375.94
2023-01-06T21:14:11.514Z,100372.41
2023-01-06T21:16:38.396Z,100368.91
2023-01-06T21:19:05.237Z,100372.88
2023-01-06T21:21:32.097Z,100368.13
2023-01-06T21:23:58.928Z,100373.16
2023-01-06T21:26:26.074Z,100375.66
2023-01-06T21:28:53.191Z,100376.50
2023-01-06T21:31:22.072Z,100369.09
2023-01-06T21:33:48.990Z,100364.97
2023-01-06T21:36:16.112Z,100356.53
2023-01-06T21:38:42.945Z,100347.91
2023-01-06T21:41:09.796Z,100358.25
2023-01-06T21:43:36.555Z,100361.75
2023-01-06T21:46:05.094Z,100350.41
2023-01-06T21:48:34.461Z,100350.44
2023-01-06T21:51:01.471Z,100355.88
2023-01-06T21:53:28.728Z,100361.97
2023-01-06T21:55:55.744Z,100348.25
2023-01-06T21:58:22.695Z,100350.16
2023-01-06T22:00:49.953Z,100354.97
2023-01-06T22:03:16.959Z,100351.41
2023-01-06T22:05:45.597Z,100353.09
2023-01-06T22:08:13.343Z,100348.31
2023-01-06T22:10:43.393Z,100355.81
2023-01-06T22:13:16.506Z,100349.38
2023-01-06T22:15:44.228Z,100346.59
2023-01-06T22:18:11.317Z,100345.19
2023-01-06T22:20:39.493Z,100343.72
2023-01-06T22:23:13.982Z,100350.19
2023-01-06T22:25:40.900Z,100348.47
2023-01-06T22:28:08.061Z,100348.25
2023-01-06T22:30:35.046Z,100348.25
2023-01-06T22:33:02.510Z,100348.44
2023-01-06T22:35:29.263Z,100347.41
2023-01-06T22:37:56.387Z,100341.34
2023-01-06T22:40:24.718Z,100347.00
2023-01-06T22:42:51.771Z,100342.94
2023-01-06T22:45:18.993Z,100333.22
2023-01-06T22:47:45.878Z,100333.84
2023-01-06T22:50:13.239Z,100340.28
2023-01-06T22:52:40.153Z,100341.56
2023-01-06T22:55:08.936Z,100339.88
2023-01-06T22:57:37.670Z,100351.22
2023-01-06T23:00:12.291Z,100347.19
2023-01-06T23:02:39.486Z,100350.75
2023-01-06T23:05:08.776Z,100345.19
2023-01-06T23:07:38.318Z,100344.22
2023-01-06T23:10:07.153Z,100340.91
2023-01-06T23:12:37.487Z,100341.97
2023-01-06T23:15:06.051Z,100347.06
2023-01-06T23:17:33.387Z,100342.50
2023-01-06T23:20:00.165Z,100330.06
2023-01-06T23:22:26.995Z,100342.78
2023-01-06T23:24:53.842Z,100334.72
2023-01-06T23:27:20.678Z,100333.56
2023-01-06T23:29:49.070Z,100342.31
2023-01-06T23:32:15.900Z,100338.41
2023-01-06T23:34:42.982Z,100338.00
2023-01-06T23:37:09.732Z,100341.72
2023-01-06T23:39:36.817Z,100334.03
2023-01-06T23:42:04.335Z,100342.31
2023-01-06T23:44:31.186Z,100340.47
2023-01-06T23:46:59.553Z,100338.63
2023-01-06T23:49:26.430Z,100332.38
2023-01-06T23:51:53.200Z,100331.97
2023-01-06T23:54:20.440Z,100319.50
2023-01-06T23:56:47.247Z,100321.09
2023-01-06T23:59:14.994Z,100322.34
